createdAt,value
2018-04-14T00:00:12.267Z,15.20
2018-04-14T00:02:40.476Z,8.40
2018-04-14T00:05:07.919Z,8.97
2018-04-14T00:07:35.724Z,11.33
2018-04-14T00:10:03.176Z,11.67
2018-04-14T00:12:30.616Z,13.07
2018-04-14T00:14:58.051Z,12.70
2018-04-14T00:17:25.504Z,8.20
2018-04-14T00:19:52.939Z,11.50
2018-04-14T00:22:20.601Z,8.50
2018-04-14T00:24:48.043Z,15.00
2018-04-14T00:27:15.488Z,11.30
2018-04-14T00:29:42.933Z,9.10
2018-04-14T00:32:10.470Z,12.93
2018-04-14T00:34:37.923Z,10.23
2018-04-14T00:37:05.369Z,15.13
2018-04-14T00:39:32.807Z,9.90
2018-04-14T00:42:00.255Z,12.00
2018-04-14T00:44:27.715Z,17.80
2018-04-14T00:46:55.169Z,14.80
2018-04-14T00:49:22.611Z,10.97
2018-04-14T00:51:50.067Z,12.10
2018-04-14T00:54:17.503Z,9.70
2018-04-14T00:56:44.952Z,9.40
2018-04-14T00:59:12.401Z,9.93
2018-04-14T01:01:39.864Z,13.13
2018-04-14T01:04:07.337Z,10.97
2018-04-14T01:06:34.780Z,8.63
2018-04-14T01:09:02.220Z,11.00
2018-04-14T01:11:30.061Z,11.00
2018-04-14T01:13:57.503Z,12.70
2018-04-14T01:16:27.646Z,9.40
2018-04-14T01:18:55.981Z,10.07
2018-04-14T01:21:23.429Z,9.67
2018-04-14T01:23:50.901Z,6.90
2018-04-14T01:26:19.794Z,11.90
2018-04-14T01:28:48.765Z,10.20
2018-04-14T01:31:16.989Z,9.73
2018-04-14T01:36:19.432Z,8.50
2018-04-14T01:38:47.629Z,7.10
2018-04-14T01:41:15.069Z,8.50
2018-04-14T01:43:43.288Z,12.67
2018-04-14T01:46:10.725Z,9.40
2018-04-14T01:48:38.164Z,6.50
2018-04-14T01:51:05.626Z,10.77
2018-04-14T01:53:36.851Z,6.67
2018-04-14T01:56:04.288Z,7.27
2018-04-14T01:58:31.723Z,7.67
2018-04-14T02:00:59.184Z,7.43
2018-04-14T02:03:26.627Z,7.53
2018-04-14T02:05:54.064Z,7.30
2018-04-14T02:08:21.515Z,9.77
2018-04-14T02:10:49.183Z,13.10
2018-04-14T02:13:16.624Z,10.93
2018-04-14T02:15:45.324Z,11.10
2018-04-14T02:18:12.763Z,9.10
2018-04-14T02:20:40.200Z,8.30
2018-04-14T02:23:07.822Z,9.87
2018-04-14T02:25:35.268Z,8.30
2018-04-14T02:28:02.711Z,13.30
2018-04-14T02:30:30.153Z,7.97
2018-04-14T02:32:57.616Z,6.90
2018-04-14T02:35:25.052Z,10.10
2018-04-14T02:37:52.500Z,7.00
2018-04-14T02:40:21.440Z,8.13
2018-04-14T02:42:48.876Z,9.63
2018-04-14T02:45:16.534Z,8.00
2018-04-14T02:47:43.972Z,10.70
2018-04-14T02:50:11.414Z,8.30
2018-04-14T02:52:38.849Z,8.10
2018-04-14T02:55:06.288Z,9.40
2018-04-14T02:57:33.735Z,9.47
2018-04-14T03:00:01.176Z,13.77
2018-04-14T03:02:28.641Z,8.70
2018-04-14T03:04:56.099Z,11.67
2018-04-14T03:07:23.539Z,7.90
2018-04-14T03:09:50.996Z,10.23
2018-04-14T03:12:18.432Z,8.77
2018-04-14T03:14:45.884Z,7.37
2018-04-14T03:17:13.323Z,6.00
2018-04-14T03:19:40.776Z,7.03
2018-04-14T03:22:08.241Z,7.80
2018-04-14T03:24:35.668Z,9.00
2018-04-14T03:27:03.123Z,9.27
2018-04-14T03:29:30.555Z,8.13
2018-04-14T03:31:58.008Z,7.00
2018-04-14T03:34:25.466Z,7.37
2018-04-14T03:36:53.669Z,10.23
2018-04-14T03:39:21.121Z,9.17
2018-04-14T03:41:48.551Z,8.13
2018-04-14T03:44:15.989Z,7.13
2018-04-14T03:46:43.437Z,10.87
2018-04-14T03:49:10.872Z,8.17
2018-04-14T03:51:38.336Z,9.37
2018-04-14T03:54:05.772Z,7.33
2018-04-14T03:56:33.208Z,10.53
2018-04-14T03:59:00.659Z,7.27
2018-04-14T04:01:28.236Z,8.90
2018-04-14T04:03:55.693Z,6.83
2018-04-14T04:06:24.639Z,7.00
2018-04-14T04:08:52.110Z,10.50
2018-04-14T04:11:19.561Z,8.67
2018-04-14T04:13:47.006Z,18.90
2018-04-14T04:16:14.467Z,11.40
2018-04-14T04:18:53.776Z,8.30
2018-04-14T04:21:33.030Z,6.13
2018-04-14T04:24:12.320Z,7.47
2018-04-14T04:26:39.771Z,6.90
2018-04-14T04:29:07.208Z,8.80
2018-04-14T04:31:34.673Z,7.50
2018-04-14T04:34:02.955Z,9.17
2018-04-14T04:36:30.406Z,8.27
2018-04-14T04:38:57.848Z,9.30
2018-04-14T04:41:25.388Z,8.37
2018-04-14T04:43:52.827Z,8.13
2018-04-14T04:46:20.273Z,6.53
2018-04-14T04:48:48.286Z,7.23
2018-04-14T04:51:15.717Z,8.03
2018-04-14T04:53:43.287Z,8.63
2018-04-14T04:56:10.729Z,6.90
2018-04-14T04:58:38.190Z,7.00
2018-04-14T05:01:05.608Z,6.90
2018-04-14T05:03:33.829Z,6.73
2018-04-14T05:06:01.323Z,6.97
2018-04-14T05:08:28.758Z,7.27
2018-04-14T05:10:56.212Z,7.43
2018-04-14T05:13:23.677Z,8.27
2018-04-14T05:15:51.856Z,7.00
2018-04-14T05:18:19.296Z,5.53
2018-04-14T05:20:46.732Z,5.87
2018-04-14T05:23:14.188Z,7.63
2018-04-14T05:25:41.613Z,6.97
2018-04-14T05:28:09.113Z,6.77
2018-04-14T05:30:36.521Z,7.03
2018-04-14T05:33:03.958Z,6.43
2018-04-14T05:35:31.415Z,4.70
2018-04-14T05:37:58.935Z,6.43
2018-04-14T05:40:26.409Z,8.13
2018-04-14T05:42:53.852Z,7.30
2018-04-14T05:45:21.296Z,5.20
2018-04-14T05:47:48.744Z,7.27
2018-04-14T05:50:16.189Z,5.07
2018-04-14T05:52:43.668Z,8.37
2018-04-14T05:55:11.103Z,6.27
2018-04-14T05:57:38.717Z,5.53
2018-04-14T06:00:06.193Z,7.10
2018-04-14T06:02:33.604Z,7.17
2018-04-14T06:05:01.055Z,7.60
2018-04-14T06:07:28.484Z,6.07
2018-04-14T06:09:55.922Z,8.07
2018-04-14T06:12:23.384Z,6.20
2018-04-14T06:14:50.831Z,8.53
2018-04-14T06:17:18.276Z,6.57
2018-04-14T06:19:45.737Z,6.30
2018-04-14T06:22:13.197Z,8.10
2018-04-14T06:24:40.635Z,7.73
2018-04-14T06:27:08.083Z,7.10
2018-04-14T06:29:35.540Z,8.27
2018-04-14T06:32:02.980Z,7.70
2018-04-14T06:34:30.424Z,6.80
2018-04-14T06:36:57.864Z,6.47
2018-04-14T06:39:25.307Z,10.23
2018-04-14T06:41:52.757Z,6.80
2018-04-14T06:44:20.211Z,10.33
2018-04-14T06:46:47.654Z,7.27
2018-04-14T06:49:15.111Z,9.77
2018-04-14T06:51:42.570Z,7.20
2018-04-14T06:54:09.999Z,7.83
2018-04-14T06:56:37.440Z,8.87
2018-04-14T06:59:04.871Z,6.70
2018-04-14T07:01:32.436Z,8.10
2018-04-14T07:04:01.407Z,9.50
2018-04-14T07:06:28.856Z,7.57
2018-04-14T07:08:56.315Z,9.23
2018-04-14T07:11:23.772Z,8.20
2018-04-14T07:13:51.228Z,7.30
2018-04-14T07:16:18.680Z,8.10
2018-04-14T07:18:48.274Z,11.67
2018-04-14T07:21:16.498Z,7.67
2018-04-14T07:23:43.932Z,9.20
2018-04-14T07:26:27.236Z,13.87
2018-04-14T07:28:54.655Z,8.17
2018-04-14T07:31:22.118Z,8.50
2018-04-14T07:33:50.904Z,8.03
2018-04-14T07:36:19.320Z,9.63
2018-04-14T07:38:46.768Z,7.80
2018-04-14T07:41:14.536Z,10.60
2018-04-14T07:43:41.999Z,10.30
2018-04-14T07:46:09.457Z,9.30
2018-04-14T07:48:36.893Z,9.00
2018-04-14T07:51:04.352Z,10.63
2018-04-14T07:53:31.812Z,9.03
2018-04-14T07:55:59.252Z,13.60
2018-04-14T07:58:26.707Z,13.87
2018-04-14T08:00:54.159Z,9.30
2018-04-14T08:03:22.397Z,10.43
2018-04-14T08:05:49.826Z,9.10
2018-04-14T08:08:17.272Z,10.07
2018-04-14T08:10:44.740Z,7.77
2018-04-14T08:13:12.181Z,8.40
2018-04-14T08:15:39.642Z,8.57
2018-04-14T08:18:07.257Z,11.00
2018-04-14T08:20:35.309Z,9.13
2018-04-14T08:23:03.183Z,8.10
2018-04-14T08:25:31.599Z,11.60
2018-04-14T08:27:59.073Z,7.13
2018-04-14T08:30:27.063Z,8.57
2018-04-14T08:32:54.617Z,7.40
2018-04-14T08:35:22.085Z,10.80
2018-04-14T08:37:49.548Z,7.50
2018-04-14T08:40:16.995Z,6.17
2018-04-14T08:42:44.461Z,6.40
2018-04-14T08:45:13.433Z,7.00
2018-04-14T08:47:40.905Z,7.43
2018-04-14T08:50:08.368Z,6.73
2018-04-14T08:52:35.867Z,6.90
2018-04-14T08:55:04.106Z,5.77
2018-04-14T08:57:33.079Z,5.57
2018-04-14T09:00:00.567Z,5.50
2018-04-14T09:02:28.055Z,6.83
2018-04-14T09:04:56.288Z,5.27
2018-04-14T09:07:23.776Z,6.90
2018-04-14T09:09:51.211Z,5.93
2018-04-14T09:12:18.652Z,5.07
2018-04-14T09:14:46.107Z,5.07
2018-04-14T09:17:13.813Z,4.33
2018-04-14T09:19:41.655Z,4.17
2018-04-14T09:22:09.131Z,6.43
2018-04-14T09:24:36.599Z,5.20
2018-04-14T09:27:04.164Z,6.50
2018-04-14T09:29:32.548Z,6.57
2018-04-14T09:32:00.869Z,5.07
2018-04-14T09:34:29.101Z,4.10
2018-04-14T09:36:56.581Z,5.53
2018-04-14T09:39:24.060Z,4.70
2018-04-14T09:41:51.516Z,4.47
2018-04-14T09:44:20.473Z,5.27
2018-04-14T09:46:47.925Z,4.20
2018-04-14T09:49:15.387Z,4.20
2018-04-14T09:51:43.332Z,4.03
2018-04-14T09:54:10.775Z,4.20
2018-04-14T09:56:38.239Z,4.97
2018-04-14T09:59:05.699Z,5.30
2018-04-14T10:01:33.159Z,3.70
2018-04-14T10:04:00.616Z,4.13
2018-04-14T10:06:28.093Z,5.37
2018-04-14T10:08:55.548Z,5.40
2018-04-14T10:11:29.161Z,6.10
2018-04-14T10:13:56.711Z,4.13
2018-04-14T10:16:24.159Z,5.43
2018-04-14T10:18:55.415Z,5.73
2018-04-14T10:21:22.897Z,6.40
2018-04-14T10:23:50.905Z,7.10
2018-04-14T10:26:18.690Z,7.07
2018-04-14T10:28:46.147Z,5.57
2018-04-14T10:31:13.606Z,5.47
2018-04-14T10:33:41.059Z,7.43
2018-04-14T10:36:08.523Z,6.00
2018-04-14T10:38:35.972Z,14.40
2018-04-14T10:41:03.439Z,6.37
2018-04-14T10:43:30.897Z,5.97
2018-04-14T10:45:58.343Z,5.17
2018-04-14T10:48:26.583Z,4.97
2018-04-14T10:50:54.125Z,4.80
2018-04-14T10:53:21.657Z,5.27
2018-04-14T10:55:49.224Z,4.60
2018-04-14T10:58:16.681Z,5.67
2018-04-14T11:00:44.198Z,5.70
2018-04-14T11:03:11.707Z,5.37
2018-04-14T11:05:40.012Z,3.80
2018-04-14T11:08:07.528Z,4.83
2018-04-14T11:10:36.034Z,4.77
2018-04-14T11:13:03.559Z,4.60
2018-04-14T11:15:31.068Z,5.67
2018-04-14T11:17:59.357Z,4.70
2018-04-14T11:20:26.883Z,6.13
2018-04-14T11:22:54.420Z,6.20
2018-04-14T11:25:21.967Z,5.97
2018-04-14T11:27:49.421Z,5.17
2018-04-14T11:30:17.311Z,7.30
2018-04-14T11:32:44.791Z,6.50
2018-04-14T11:35:12.252Z,5.13
2018-04-14T11:37:39.716Z,8.73
2018-04-14T11:40:07.252Z,5.77
2018-04-14T11:42:34.708Z,6.30
2018-04-14T11:45:02.260Z,9.20
2018-04-14T11:47:29.741Z,5.20
2018-04-14T11:49:57.216Z,6.30
2018-04-14T11:52:24.734Z,6.03
2018-04-14T11:54:52.995Z,7.67
2018-04-14T11:57:21.255Z,5.67
2018-04-14T11:59:48.803Z,5.50
2018-04-14T12:02:16.297Z,4.80
2018-04-14T12:04:43.816Z,7.13
2018-04-14T12:07:11.333Z,6.27
2018-04-14T12:09:38.834Z,7.23
2018-04-14T12:12:06.320Z,5.30
2018-04-14T12:14:33.889Z,5.23
2018-04-14T12:17:01.905Z,4.53
2018-04-14T12:19:30.784Z,5.83
2018-04-14T12:21:59.837Z,5.00
2018-04-14T12:24:27.365Z,4.30
2018-04-14T12:26:55.630Z,4.83
2018-04-14T12:29:23.095Z,6.57
2018-04-14T12:31:50.648Z,5.67
2018-04-14T12:34:18.183Z,6.27
2018-04-14T12:36:45.693Z,4.10
2018-04-14T12:39:13.229Z,5.73
2018-04-14T12:41:40.750Z,4.87
2018-04-14T12:44:08.283Z,4.27
2018-04-14T12:46:35.795Z,6.40
2018-04-14T12:49:03.321Z,6.30
2018-04-14T12:51:31.625Z,6.07
2018-04-14T12:53:59.674Z,6.97
2018-04-14T12:56:27.884Z,6.60
2018-04-14T12:58:55.341Z,5.10
2018-04-14T13:01:22.798Z,6.07
2018-04-14T13:03:54.144Z,4.70
2018-04-14T13:06:29.105Z,4.50
2018-04-14T13:08:56.992Z,4.80
2018-04-14T13:11:24.594Z,5.17
2018-04-14T13:13:52.804Z,4.40
2018-04-14T13:16:20.272Z,5.30
2018-04-14T13:18:48.407Z,5.13
2018-04-14T13:21:16.638Z,5.03
2018-04-14T13:23:44.410Z,6.10
2018-04-14T13:26:13.458Z,5.20
2018-04-14T13:28:40.892Z,4.40
2018-04-14T13:31:08.352Z,5.43
2018-04-14T13:33:35.992Z,5.27
2018-04-14T13:36:03.462Z,6.03
2018-04-14T13:38:31.425Z,4.43
2018-04-14T13:40:58.871Z,4.23
2018-04-14T13:43:26.331Z,4.27
2018-04-14T13:45:53.795Z,3.37
2018-04-14T13:48:21.262Z,5.93
2018-04-14T13:50:48.716Z,4.20
2018-04-14T13:53:16.181Z,3.30
2018-04-14T13:55:44.070Z,4.07
2018-04-14T13:58:11.526Z,3.80
2018-04-14T14:00:38.974Z,4.30
2018-04-14T14:03:06.562Z,4.90
2018-04-14T14:05:34.020Z,4.80
2018-04-14T14:08:01.474Z,2.50
2018-04-14T14:10:28.967Z,3.30
2018-04-14T14:12:56.519Z,2.70
2018-04-14T14:15:23.981Z,3.10
2018-04-14T14:17:51.420Z,4.33
2018-04-14T14:20:18.921Z,3.30
2018-04-14T14:22:46.503Z,4.10
2018-04-14T14:25:13.965Z,3.33
2018-04-14T14:27:41.796Z,3.67
2018-04-14T14:30:09.240Z,3.40
2018-04-14T14:32:36.763Z,2.90
2018-04-14T14:35:05.011Z,2.73
2018-04-14T14:37:32.469Z,4.20
2018-04-14T14:40:06.004Z,3.33
2018-04-14T14:42:34.792Z,2.90
2018-04-14T14:45:08.515Z,3.13
2018-04-14T14:47:43.036Z,2.80
2018-04-14T14:50:18.697Z,3.70
2018-04-14T14:52:46.250Z,4.60
2018-04-14T14:55:14.467Z,3.87
2018-04-14T14:57:42.048Z,3.63
2018-04-14T15:00:09.630Z,2.40
2018-04-14T15:02:37.099Z,4.03
2018-04-14T15:05:04.625Z,3.03
2018-04-14T15:07:32.105Z,3.00
2018-04-14T15:09:59.622Z,3.03
2018-04-14T15:12:27.923Z,3.27
2018-04-14T15:14:55.447Z,3.60
2018-04-14T15:17:22.950Z,2.80
2018-04-14T15:19:50.859Z,3.17
2018-04-14T15:22:18.302Z,3.20
2018-04-14T15:24:45.758Z,3.87
2018-04-14T15:27:13.265Z,4.73
2018-04-14T15:29:40.805Z,3.60
2018-04-14T15:32:08.332Z,3.20
2018-04-14T15:34:35.904Z,4.83
2018-04-14T15:37:03.400Z,4.33
2018-04-14T15:39:31.067Z,3.10
2018-04-14T15:41:58.812Z,3.67
2018-04-14T15:44:26.267Z,5.63
2018-04-14T15:46:53.785Z,4.50
2018-04-14T15:49:21.217Z,4.20
2018-04-14T15:51:48.770Z,3.13
2018-04-14T15:54:16.253Z,3.00
2018-04-14T15:56:43.705Z,2.70
2018-04-14T15:59:11.159Z,3.20
2018-04-14T16:01:38.624Z,2.60
2018-04-14T16:04:09.788Z,2.80
2018-04-14T16:06:33.527Z,4.07
2018-04-14T16:09:01.019Z,3.93
2018-04-14T16:11:28.603Z,4.87
2018-04-14T16:13:57.593Z,2.80
2018-04-14T16:16:25.017Z,3.03
2018-04-14T16:18:53.243Z,6.27
2018-04-14T16:21:21.480Z,4.33
2018-04-14T16:23:48.949Z,3.27
2018-04-14T16:26:16.418Z,2.55
2018-04-14T16:28:43.879Z,3.17
2018-04-14T16:31:11.351Z,3.50
2018-04-14T16:33:39.027Z,4.10
2018-04-14T16:36:06.473Z,3.10
2018-04-14T16:38:33.934Z,3.58
2018-04-14T16:41:01.587Z,7.40
2018-04-14T16:43:29.286Z,4.80
2018-04-14T16:45:56.934Z,4.20
2018-04-14T16:48:24.403Z,3.60
2018-04-14T16:50:51.859Z,3.17
2018-04-14T16:53:19.315Z,3.47
2018-04-14T16:55:46.764Z,6.50
2018-04-14T16:58:14.218Z,4.17
2018-04-14T17:00:41.996Z,4.63
2018-04-14T17:03:10.277Z,3.77
2018-04-14T17:05:37.741Z,3.37
2018-04-14T17:08:06.000Z,3.50
2018-04-14T17:10:33.551Z,3.87
2018-04-14T17:13:00.988Z,3.23
2018-04-14T17:15:28.527Z,4.57
2018-04-14T17:17:56.099Z,4.30
2018-04-14T17:20:23.547Z,4.40
2018-04-14T17:22:51.003Z,10.17
2018-04-14T17:25:18.490Z,4.37
2018-04-14T17:27:45.893Z,9.10
2018-04-14T17:30:13.336Z,4.50
2018-04-14T17:32:40.828Z,3.83
2018-04-14T17:35:08.276Z,4.10
2018-04-14T17:37:35.708Z,4.27
2018-04-14T17:40:03.339Z,6.40
2018-04-14T17:42:30.791Z,4.70
2018-04-14T17:44:59.268Z,5.07
2018-04-14T17:47:26.725Z,4.00
2018-04-14T17:49:54.173Z,5.43
2018-04-14T17:52:21.631Z,3.80
2018-04-14T17:54:49.080Z,4.00
2018-04-14T17:57:16.655Z,6.50
2018-04-14T17:59:44.105Z,6.00
2018-04-14T18:02:11.552Z,4.30
2018-04-14T18:04:39.780Z,3.50
2018-04-14T18:07:07.223Z,3.93
2018-04-14T18:09:34.732Z,3.67
2018-04-14T18:12:02.141Z,3.83
2018-04-14T18:14:29.704Z,9.93
2018-04-14T18:16:57.168Z,4.97
2018-04-14T18:19:24.590Z,4.07
2018-04-14T18:21:52.055Z,8.73
2018-04-14T18:24:19.569Z,3.40
2018-04-14T18:26:47.039Z,3.47
2018-04-14T18:29:14.502Z,4.13
2018-04-14T18:31:41.941Z,4.90
2018-04-14T18:34:09.618Z,5.40
2018-04-14T18:36:37.068Z,5.37
2018-04-14T18:39:05.211Z,3.90
2018-04-14T18:41:33.445Z,3.63
2018-04-14T18:44:05.448Z,3.90
2018-04-14T18:51:07.520Z,3.07
2018-04-14T18:53:34.965Z,4.30
2018-04-14T18:56:02.520Z,4.07
2018-04-14T18:58:30.323Z,4.90
2018-04-14T19:00:57.796Z,6.67
2018-04-14T19:03:25.436Z,7.63
2018-04-14T19:05:52.963Z,5.13
2018-04-14T19:08:20.364Z,4.43
2018-04-14T19:10:47.854Z,4.70
2018-04-14T19:13:15.295Z,6.33
2018-04-14T19:15:42.733Z,5.23
2018-04-14T19:18:10.649Z,4.50
2018-04-14T19:20:39.572Z,3.90
2018-04-14T19:23:07.029Z,3.90
2018-04-14T19:25:34.472Z,4.37
2018-04-14T19:28:01.972Z,4.10
2018-04-14T19:30:30.878Z,5.30
2018-04-14T19:32:58.659Z,6.40
2018-04-14T19:35:26.328Z,4.00
2018-04-14T19:37:53.887Z,7.97
2018-04-14T19:40:21.240Z,4.00
2018-04-14T19:42:48.741Z,3.97
2018-04-14T19:45:16.187Z,5.43
2018-04-14T19:47:43.641Z,5.93
2018-04-14T19:50:11.081Z,5.13
2018-04-14T19:52:38.528Z,6.77
2018-04-14T19:55:06.215Z,6.43
2018-04-14T19:57:33.665Z,10.03
2018-04-14T20:00:01.127Z,5.90
2018-04-14T20:02:28.793Z,5.00
2018-04-14T20:04:56.222Z,5.80
2018-04-14T20:07:24.439Z,8.07
2018-04-14T20:09:51.880Z,5.20
2018-04-14T20:12:19.352Z,6.07
2018-04-14T20:14:46.824Z,4.03
2018-04-14T20:17:14.283Z,5.07
2018-04-14T20:19:41.758Z,4.40
2018-04-14T20:22:09.493Z,4.37
2018-04-14T20:24:37.003Z,4.53
2018-04-14T20:27:04.445Z,3.00
2018-04-14T20:29:31.905Z,4.47
2018-04-14T20:31:59.468Z,5.20
2018-04-14T20:34:26.918Z,5.60
2018-04-14T20:36:54.432Z,4.37
2018-04-14T20:39:21.859Z,3.37
2018-04-14T20:41:49.353Z,3.90
2018-04-14T20:44:16.814Z,4.50
2018-04-14T20:46:44.340Z,5.37
2018-04-14T20:49:11.793Z,7.77
2018-04-14T20:51:39.236Z,6.93
2018-04-14T20:54:06.675Z,8.57
2018-04-14T20:56:34.135Z,5.70
2018-04-14T20:59:01.664Z,6.30
2018-04-14T21:01:29.044Z,6.93
2018-04-14T21:03:56.496Z,7.60
2018-04-14T21:06:23.956Z,5.33
2018-04-14T21:08:51.399Z,5.20
2018-04-14T21:11:18.863Z,8.67
2018-04-14T21:13:46.312Z,9.40
2018-04-14T21:16:13.760Z,9.63
2018-04-14T21:18:41.204Z,5.67
2018-04-14T21:21:08.656Z,7.27
2018-04-14T21:23:36.101Z,5.20
2018-04-14T21:26:03.559Z,7.10
2018-04-14T21:28:31.067Z,8.93
2018-04-14T21:30:58.500Z,7.20
2018-04-14T21:33:25.979Z,5.13
2018-04-14T21:35:53.423Z,7.00
2018-04-14T21:38:21.857Z,12.93
2018-04-14T21:40:49.405Z,8.17
2018-04-14T21:43:16.823Z,4.40
2018-04-14T21:45:44.328Z,8.50
2018-04-14T21:48:11.744Z,5.00
2018-04-14T21:50:39.199Z,6.90
2018-04-14T21:53:06.648Z,7.57
2018-04-14T21:55:34.105Z,8.47
2018-04-14T21:58:01.557Z,8.20
2018-04-14T22:00:29.014Z,11.47
2018-04-14T22:02:56.459Z,7.40
2018-04-14T22:05:23.913Z,5.53
2018-04-14T22:07:51.352Z,8.47
2018-04-14T22:10:18.942Z,9.83
2018-04-14T22:12:46.393Z,7.73
2018-04-14T22:15:13.836Z,6.37
2018-04-14T22:17:42.045Z,8.27
2018-04-14T22:20:09.480Z,9.30
2018-04-14T22:22:36.948Z,6.20
2018-04-14T22:25:04.764Z,5.13
2018-04-14T22:27:32.220Z,7.27
2018-04-14T22:29:59.665Z,6.37
2018-04-14T22:32:27.121Z,7.60
2018-04-14T22:34:54.576Z,5.30
2018-04-14T22:37:22.020Z,5.77
2018-04-14T22:39:49.685Z,6.27
2018-04-14T22:42:17.145Z,5.20
2018-04-14T22:44:44.588Z,8.43
2018-04-14T22:47:12.805Z,6.90
2018-04-14T22:49:40.255Z,6.97
2018-04-14T22:52:07.713Z,8.10
2018-04-14T22:54:35.411Z,7.17
2018-04-14T22:57:02.891Z,7.93
2018-04-14T22:59:30.347Z,5.40
2018-04-14T23:01:57.783Z,7.00
2018-04-14T23:04:25.585Z,7.30
2018-04-14T23:06:53.012Z,6.20
2018-04-14T23:09:20.447Z,7.17
2018-04-14T23:11:48.161Z,8.30
2018-04-14T23:14:15.627Z,7.00
2018-04-14T23:16:43.079Z,11.33
2018-04-14T23:19:10.820Z,6.00
2018-04-14T23:21:38.299Z,11.00
2018-04-14T23:24:05.763Z,9.50
2018-04-14T23:26:33.537Z,8.20
2018-04-14T23:29:00.991Z,8.20
2018-04-14T23:31:28.595Z,7.20
2018-04-14T23:33:56.364Z,8.40
2018-04-14T23:36:25.317Z,6.93
2018-04-14T23:38:52.757Z,7.63
2018-04-14T23:41:20.213Z,7.60
2018-04-14T23:43:47.756Z,12.40
2018-04-14T23:46:15.975Z,8.30
2018-04-14T23:48:43.423Z,8.50
2018-04-14T23:51:10.858Z,7.97
2018-04-14T23:53:38.312Z,8.23
2018-04-14T23:56:05.755Z,9.80
2018-04-14T23:58:33.520Z,7.57
